createdAt,value
2023-04-12T00:00:48.455Z,389.00
2023-04-12T00:01:48.469Z,390.00
2023-04-12T00:02:48.551Z,390.00
2023-04-12T00:03:48.631Z,391.00
2023-04-12T00:04:48.701Z,391.00
2023-04-12T00:05:48.516Z,392.00
2023-04-12T00:06:48.606Z,392.00
2023-04-12T00:07:48.522Z,391.00
2023-04-12T00:08:48.538Z,390.00
2023-04-12T00:09:48.544Z,391.00
2023-04-12T00:10:48.535Z,393.00
2023-04-12T00:11:48.558Z,394.00
2023-04-12T00:12:48.552Z,395.00
2023-04-12T00:13:48.596Z,393.00
2023-04-12T00:14:48.555Z,392.00
2023-04-12T00:15:48.622Z,393.00
2023-04-12T00:16:48.570Z,395.00
2023-04-12T00:17:48.585Z,396.00
2023-04-12T00:18:48.566Z,396.00
2023-04-12T00:19:48.650Z,396.00
2023-04-12T00:20:48.604Z,395.00
2023-04-12T00:21:48.594Z,394.00
2023-04-12T00:22:50.311Z,391.00
2023-04-12T00:23:48.588Z,392.00
2023-04-12T00:24:48.620Z,391.00
2023-04-12T00:25:48.646Z,389.00
2023-04-12T00:26:48.618Z,389.00
2023-04-12T00:27:48.636Z,390.00
2023-04-12T00:28:48.603Z,388.00
2023-04-12T00:29:48.607Z,389.00
2023-04-12T00:30:48.661Z,392.00
2023-04-12T00:31:48.755Z,394.00
2023-04-12T00:32:48.689Z,396.00
2023-04-12T00:33:48.630Z,396.00
2023-04-12T00:34:48.650Z,396.00
2023-04-12T00:35:48.690Z,394.00
2023-04-12T00:36:48.614Z,394.00
2023-04-12T00:37:48.639Z,392.00
2023-04-12T00:38:48.632Z,390.00
2023-04-12T00:39:48.606Z,393.00
2023-04-12T00:40:48.628Z,393.00
2023-04-12T00:41:48.615Z,393.00
2023-04-12T00:42:48.613Z,394.00
2023-04-12T00:43:48.599Z,395.00
2023-04-12T00:44:48.606Z,397.00
2023-04-12T00:45:48.581Z,397.00
2023-04-12T00:46:48.600Z,397.00
2023-04-12T00:47:48.624Z,397.00
2023-04-12T00:48:48.694Z,395.00
2023-04-12T00:49:48.577Z,394.00
2023-04-12T00:50:48.582Z,393.00
2023-04-12T00:51:48.602Z,392.00
2023-04-12T00:52:48.605Z,391.00
2023-04-12T00:53:48.604Z,389.00
2023-04-12T00:54:48.585Z,389.00
2023-04-12T00:55:48.581Z,389.00
2023-04-12T00:56:48.613Z,388.00
2023-04-12T00:57:48.568Z,386.00
2023-04-12T00:58:48.596Z,385.00
2023-04-12T00:59:48.580Z,384.00
2023-04-12T01:00:48.569Z,384.00
2023-04-12T01:01:48.646Z,386.00
2023-04-12T01:02:48.653Z,387.00
2023-04-12T01:03:48.742Z,387.00
2023-04-12T01:04:48.564Z,388.00
2023-04-12T01:05:48.568Z,391.00
2023-04-12T01:06:48.550Z,390.00
2023-04-12T01:07:48.555Z,390.00
2023-04-12T01:08:48.552Z,389.00
2023-04-12T01:09:48.571Z,387.00
2023-04-12T01:10:48.558Z,387.00
2023-04-12T01:11:48.567Z,386.00
2023-04-12T01:12:48.550Z,386.00
2023-04-12T01:13:48.559Z,385.00
2023-04-12T01:14:48.535Z,382.00
2023-04-12T01:15:48.554Z,383.00
2023-04-12T01:16:48.708Z,383.00
2023-04-12T01:17:48.593Z,382.00
2023-04-12T01:18:48.521Z,383.00
2023-04-12T01:19:48.509Z,382.00
2023-04-12T01:20:48.526Z,382.00
2023-04-12T01:21:48.515Z,383.00
2023-04-12T01:22:48.523Z,383.00
2023-04-12T01:23:48.502Z,385.00
2023-04-12T01:24:48.487Z,386.00
2023-04-12T01:25:48.593Z,384.00
2023-04-12T01:26:48.490Z,385.00
2023-04-12T01:27:48.466Z,383.00
2023-04-12T01:28:48.512Z,383.00
2023-04-12T01:29:48.505Z,384.00
2023-04-12T01:30:48.509Z,383.00
2023-04-12T01:31:48.531Z,383.00
2023-04-12T01:32:48.548Z,382.00
2023-04-12T01:33:48.478Z,382.00
2023-04-12T01:34:48.477Z,383.00
2023-04-12T01:35:48.513Z,382.00
2023-04-12T01:36:48.470Z,380.00
2023-04-12T01:37:48.436Z,381.00
2023-04-12T01:38:48.429Z,383.00
2023-04-12T01:39:48.442Z,386.00
2023-04-12T01:40:48.451Z,388.00
2023-04-12T01:41:48.429Z,388.00
2023-04-12T01:42:48.423Z,388.00
2023-04-12T01:43:48.385Z,390.00
2023-04-12T01:44:48.406Z,391.00
2023-04-12T01:45:48.472Z,392.00
2023-04-12T01:46:48.413Z,391.00
2023-04-12T01:47:48.420Z,391.00
2023-04-12T01:48:48.422Z,392.00
2023-04-12T01:49:48.399Z,391.00
2023-04-12T01:50:48.408Z,392.00
2023-04-12T01:51:48.385Z,393.00
2023-04-12T01:52:48.400Z,393.00
2023-04-12T01:53:48.393Z,393.00
2023-04-12T01:54:48.374Z,393.00
2023-04-12T01:55:48.402Z,392.00
2023-04-12T01:56:48.352Z,391.00
2023-04-12T01:57:48.361Z,390.00
2023-04-12T01:58:48.346Z,389.00
2023-04-12T01:59:48.350Z,388.00
2023-04-12T02:00:48.376Z,388.00
2023-04-12T02:01:48.349Z,387.00
2023-04-12T02:02:48.429Z,386.00
2023-04-12T02:03:48.455Z,387.00
2023-04-12T02:04:48.314Z,385.00
2023-04-12T02:05:48.344Z,383.00
2023-04-12T02:06:48.365Z,381.00
2023-04-12T02:07:48.293Z,379.00
2023-04-12T02:08:48.334Z,378.00
2023-04-12T02:09:48.321Z,376.00
2023-04-12T02:10:48.321Z,375.00
2023-04-12T02:11:48.318Z,376.00
2023-04-12T02:12:48.257Z,375.00
2023-04-12T02:13:48.306Z,375.00
2023-04-12T02:14:48.291Z,374.00
2023-04-12T02:15:48.297Z,374.00
2023-04-12T02:16:48.379Z,375.00
2023-04-12T02:17:48.313Z,375.00
2023-04-12T02:18:48.275Z,374.00
2023-04-12T02:19:48.290Z,377.00
2023-04-12T02:20:48.246Z,376.00
2023-04-12T02:21:48.259Z,377.00
2023-04-12T02:22:48.343Z,378.00
2023-04-12T02:23:48.265Z,378.00
2023-04-12T02:24:48.275Z,378.00
2023-04-12T02:25:48.241Z,379.00
2023-04-12T02:26:48.302Z,381.00
2023-04-12T02:27:48.241Z,381.00
2023-04-12T02:28:48.257Z,383.00
2023-04-12T02:29:48.255Z,382.00
2023-04-12T02:30:48.251Z,383.00
2023-04-12T02:31:48.272Z,386.00
2023-04-12T02:32:48.322Z,390.00
2023-04-12T02:33:48.222Z,392.00
2023-04-12T02:34:48.276Z,389.00
2023-04-12T02:35:48.263Z,390.00
2023-04-12T02:36:48.265Z,392.00
2023-04-12T02:37:48.246Z,389.00
2023-04-12T02:38:48.271Z,388.00
2023-04-12T02:39:48.233Z,386.00
2023-04-12T02:40:48.249Z,388.00
2023-04-12T02:41:48.263Z,389.00
2023-04-12T02:42:48.242Z,390.00
2023-04-12T02:43:48.308Z,391.00
2023-04-12T02:44:48.256Z,391.00
2023-04-12T02:45:48.292Z,389.00
2023-04-12T02:46:48.260Z,388.00
2023-04-12T02:47:48.311Z,387.00
2023-04-12T02:48:48.235Z,387.00
2023-04-12T02:49:48.244Z,384.00
2023-04-12T02:50:48.249Z,384.00
2023-04-12T02:51:48.246Z,386.00
2023-04-12T02:52:48.242Z,387.00
2023-04-12T02:53:48.215Z,387.00
2023-04-12T02:54:48.217Z,388.00
2023-04-12T02:55:48.219Z,388.00
2023-04-12T02:56:48.211Z,386.00
2023-04-12T02:57:48.217Z,385.00
2023-04-12T02:58:48.211Z,385.00
2023-04-12T02:59:48.214Z,385.00
2023-04-12T03:00:48.225Z,386.00
2023-04-12T03:01:48.292Z,386.00
2023-04-12T03:02:48.290Z,385.00
2023-04-12T03:03:48.316Z,386.00
2023-04-12T03:04:48.192Z,387.00
2023-04-12T03:05:48.196Z,388.00
2023-04-12T03:06:48.213Z,389.00
2023-04-12T03:07:48.236Z,390.00
2023-04-12T03:08:48.206Z,391.00
2023-04-12T03:09:48.213Z,392.00
2023-04-12T03:10:48.203Z,391.00
2023-04-12T03:11:48.241Z,389.00
2023-04-12T03:12:48.225Z,387.00
2023-04-12T03:13:48.209Z,387.00
2023-04-12T03:14:48.266Z,390.00
2023-04-12T03:15:48.317Z,390.00
2023-04-12T03:16:48.230Z,388.00
2023-04-12T03:17:48.284Z,386.00
2023-04-12T03:18:48.248Z,383.00
2023-04-12T03:19:48.211Z,383.00
2023-04-12T03:20:48.247Z,384.00
2023-04-12T03:21:48.249Z,385.00
2023-04-12T03:22:48.244Z,383.00
2023-04-12T03:23:48.264Z,383.00
2023-04-12T03:24:48.250Z,380.00
2023-04-12T03:25:48.254Z,381.00
2023-04-12T03:26:48.249Z,380.00
2023-04-12T03:27:48.227Z,380.00
2023-04-12T03:28:48.263Z,382.00
2023-04-12T03:29:48.253Z,381.00
2023-04-12T03:30:48.305Z,381.00
2023-04-12T03:31:48.270Z,381.00
2023-04-12T03:32:48.317Z,383.00
2023-04-12T03:33:48.249Z,384.00
2023-04-12T03:34:48.247Z,384.00
2023-04-12T03:35:48.299Z,384.00
2023-04-12T03:36:48.317Z,384.00
2023-04-12T03:37:48.281Z,384.00
2023-04-12T03:38:48.274Z,381.00
2023-04-12T03:39:48.544Z,379.00
2023-04-12T03:40:48.291Z,379.00
2023-04-12T03:41:48.302Z,380.00
2023-04-12T03:42:48.333Z,379.00
2023-04-12T03:43:48.303Z,380.00
2023-04-12T03:44:48.278Z,382.00
2023-04-12T03:45:48.320Z,384.00
2023-04-12T03:46:48.406Z,386.00
2023-04-12T03:47:48.365Z,385.00
2023-04-12T03:48:48.313Z,385.00
2023-04-12T03:49:58.781Z,387.00
2023-04-12T03:50:49.292Z,388.00
2023-04-12T03:51:48.327Z,387.00
2023-04-12T03:52:48.309Z,387.00
2023-04-12T03:53:48.274Z,387.00
2023-04-12T03:54:48.271Z,385.00
2023-04-12T03:55:48.307Z,386.00
2023-04-12T03:56:48.254Z,386.00
2023-04-12T03:57:48.254Z,384.00
2023-04-12T03:58:48.238Z,385.00
2023-04-12T03:59:48.237Z,385.00
2023-04-12T04:00:48.237Z,386.00
2023-04-12T04:01:48.254Z,386.00
2023-04-12T04:02:48.235Z,386.00
2023-04-12T04:03:48.376Z,385.00
2023-04-12T04:04:48.249Z,384.00
2023-04-12T04:05:48.177Z,383.00
2023-04-12T04:06:48.179Z,382.00
2023-04-12T04:07:48.199Z,380.00
2023-04-12T04:08:48.158Z,380.00
2023-04-12T04:09:48.174Z,378.00
2023-04-12T04:10:48.142Z,380.00
2023-04-12T04:11:48.165Z,380.00
2023-04-12T04:12:48.121Z,380.00
2023-04-12T04:13:48.115Z,381.00
2023-04-12T04:14:48.174Z,380.00
2023-04-12T04:15:48.108Z,381.00
2023-04-12T04:16:48.277Z,380.00
2023-04-12T04:17:48.101Z,380.00
2023-04-12T04:18:48.099Z,381.00
2023-04-12T04:19:48.099Z,381.00
2023-04-12T04:20:48.092Z,380.00
2023-04-12T04:21:48.092Z,383.00
2023-04-12T04:22:48.061Z,381.00
2023-04-12T04:23:48.117Z,382.00
2023-04-12T04:24:48.043Z,382.00
2023-04-12T04:25:48.080Z,384.00
2023-04-12T04:26:48.077Z,383.00
2023-04-12T04:27:48.028Z,383.00
2023-04-12T04:28:48.035Z,383.00
2023-04-12T04:29:48.040Z,384.00
2023-04-12T04:30:48.008Z,385.00
2023-04-12T04:31:48.038Z,385.00
2023-04-12T04:32:48.005Z,385.00
2023-04-12T04:33:48.004Z,386.00
2023-04-12T04:34:48.000Z,384.00
2023-04-12T04:35:48.062Z,382.00
2023-04-12T04:36:48.009Z,382.00
2023-04-12T04:37:48.027Z,381.00
2023-04-12T04:38:48.023Z,381.00
2023-04-12T04:39:48.050Z,382.00
2023-04-12T04:40:48.029Z,380.00
2023-04-12T04:41:48.027Z,381.00
2023-04-12T04:42:48.036Z,382.00
2023-04-12T04:43:48.099Z,383.00
2023-04-12T04:44:48.082Z,382.00
2023-04-12T04:45:48.086Z,384.00
2023-04-12T04:46:48.047Z,386.00
2023-04-12T04:47:48.128Z,386.00
2023-04-12T04:48:48.067Z,385.00
2023-04-12T04:49:48.089Z,383.00
2023-04-12T04:50:48.076Z,385.00
2023-04-12T04:51:48.085Z,383.00
2023-04-12T04:52:48.107Z,383.00
2023-04-12T04:53:48.116Z,382.00
2023-04-12T04:54:48.093Z,381.00
2023-04-12T04:55:48.121Z,380.00
2023-04-12T04:56:48.100Z,380.00
2023-04-12T04:57:48.119Z,381.00
2023-04-12T04:58:48.097Z,381.00
2023-04-12T04:59:48.146Z,380.00
2023-04-12T05:00:48.175Z,380.00
2023-04-12T05:01:48.229Z,378.00
2023-04-12T05:02:48.330Z,378.00
2023-04-12T05:03:48.283Z,379.00
2023-04-12T05:04:48.172Z,378.00
2023-04-12T05:05:48.150Z,378.00
2023-04-12T05:06:48.190Z,376.00
2023-04-12T05:07:48.166Z,375.00
2023-04-12T05:08:48.210Z,375.00
2023-04-12T05:09:48.165Z,376.00
2023-04-12T05:10:48.212Z,377.00
2023-04-12T05:11:48.218Z,377.00
2023-04-12T05:12:48.233Z,377.00
2023-04-12T05:13:48.187Z,378.00
2023-04-12T05:14:51.625Z,377.00
2023-04-12T05:15:48.202Z,379.00
2023-04-12T05:16:48.243Z,380.00
2023-04-12T05:17:48.336Z,380.00
2023-04-12T05:18:48.289Z,380.00
2023-04-12T05:19:48.171Z,379.00
2023-04-12T05:20:48.159Z,378.00
2023-04-12T05:21:48.174Z,378.00
2023-04-12T05:22:48.156Z,378.00
2023-04-12T05:23:48.169Z,378.00
2023-04-12T05:24:48.141Z,379.00
2023-04-12T05:25:48.296Z,379.00
2023-04-12T05:26:48.141Z,381.00
2023-04-12T05:27:49.275Z,380.00
2023-04-12T05:28:48.107Z,380.00
2023-04-12T05:29:48.141Z,380.00
2023-04-12T05:30:48.172Z,382.00
2023-04-12T05:31:48.115Z,384.00
2023-04-12T05:32:48.108Z,383.00
2023-04-12T05:33:48.096Z,384.00
2023-04-12T05:34:48.106Z,384.00
2023-04-12T05:35:48.118Z,381.00
2023-04-12T05:36:48.434Z,379.00
2023-04-12T05:37:48.046Z,379.00
2023-04-12T05:38:48.064Z,381.00
2023-04-12T05:39:48.054Z,382.00
2023-04-12T05:40:48.070Z,381.00
2023-04-12T05:41:48.026Z,380.00
2023-04-12T05:42:48.014Z,380.00
2023-04-12T05:43:48.021Z,382.00
2023-04-12T05:44:49.310Z,379.00
2023-04-12T05:45:48.072Z,378.00
2023-04-12T05:46:48.422Z,379.00
2023-04-12T05:47:48.109Z,379.00
2023-04-12T05:48:47.991Z,379.00
2023-04-12T05:49:47.994Z,376.00
2023-04-12T05:50:47.978Z,375.00
2023-04-12T05:51:48.425Z,375.00
2023-04-12T05:52:47.973Z,375.00
2023-04-12T05:53:47.956Z,377.00
2023-04-12T05:54:47.919Z,378.00
2023-04-12T05:55:47.932Z,379.00
2023-04-12T05:56:48.406Z,379.00
2023-04-12T05:57:47.911Z,380.00
2023-04-12T05:58:47.922Z,380.00
2023-04-12T05:59:47.928Z,380.00
2023-04-12T06:00:47.923Z,378.00
2023-04-12T06:01:47.943Z,378.00
2023-04-12T06:02:48.045Z,377.00
2023-04-12T06:03:48.090Z,378.00
2023-04-12T06:04:51.219Z,380.00
2023-04-12T06:05:47.862Z,381.00
2023-04-12T06:06:47.925Z,383.00
2023-04-12T06:07:47.901Z,385.00
2023-04-12T06:08:47.871Z,385.00
2023-04-12T06:09:47.838Z,387.00
2023-04-12T06:10:47.827Z,389.00
2023-04-12T06:11:47.852Z,388.00
2023-04-12T06:12:47.823Z,387.00
2023-04-12T06:13:47.850Z,386.00
2023-04-12T06:14:47.839Z,388.00
2023-04-12T06:15:47.844Z,391.00
2023-04-12T06:16:47.791Z,392.00
2023-04-12T06:17:47.797Z,393.00
2023-04-12T06:18:47.787Z,391.00
2023-04-12T06:19:47.805Z,388.00
2023-04-12T06:20:47.788Z,390.00
2023-04-12T06:21:47.917Z,392.00
2023-04-12T06:22:47.749Z,394.00
2023-04-12T06:23:47.742Z,396.00
2023-04-12T06:24:47.754Z,397.00
2023-04-12T06:25:47.749Z,398.00
2023-04-12T06:26:47.757Z,399.00
2023-04-12T06:27:47.723Z,402.00
2023-04-12T06:28:47.697Z,404.00
2023-04-12T06:29:47.697Z,405.00
2023-04-12T06:30:47.709Z,408.00
2023-04-12T06:31:47.711Z,410.00
2023-04-12T06:32:47.801Z,411.00
2023-04-12T06:33:47.665Z,412.00
2023-04-12T06:34:47.683Z,414.00
2023-04-12T06:35:47.700Z,415.00
2023-04-12T06:36:47.665Z,413.00
2023-04-12T06:37:47.623Z,413.00
2023-04-12T06:38:47.652Z,414.00
2023-04-12T06:39:47.621Z,416.00
2023-04-12T06:40:47.632Z,418.00
2023-04-12T06:41:47.630Z,418.00
2023-04-12T06:42:47.622Z,421.00
2023-04-12T06:43:47.576Z,424.00
2023-04-12T06:44:47.576Z,423.00
2023-04-12T06:45:47.586Z,427.00
2023-04-12T06:46:47.938Z,428.00
2023-04-12T06:47:47.641Z,431.00
2023-04-12T06:48:47.586Z,433.00
2023-04-12T06:49:47.583Z,433.00
2023-04-12T06:50:47.571Z,435.00
2023-04-12T06:51:47.914Z,440.00
2023-04-12T06:52:47.542Z,445.00
2023-04-12T06:53:47.572Z,475.00
2023-04-12T06:54:47.569Z,477.00
2023-04-12T06:55:47.502Z,516.00
2023-04-12T06:56:47.534Z,577.00
2023-04-12T06:57:47.518Z,560.00
2023-04-12T06:58:47.499Z,549.00
2023-04-12T06:59:47.503Z,547.00
2023-04-12T07:00:47.474Z,545.00
2023-04-12T07:01:47.535Z,545.00
2023-04-12T07:02:47.575Z,556.00
2023-04-12T07:03:47.493Z,554.00
2023-04-12T07:04:47.501Z,555.00
2023-04-12T07:05:47.465Z,561.00
2023-04-12T07:06:47.454Z,576.00
2023-04-12T07:07:47.461Z,642.00
2023-04-12T07:08:47.421Z,650.00
2023-04-12T07:09:47.440Z,676.00
2023-04-12T07:10:47.404Z,685.00
2023-04-12T07:11:47.390Z,682.00
2023-04-12T07:12:47.401Z,687.00
2023-04-12T07:13:47.398Z,694.00
2023-04-12T07:14:47.371Z,704.00
2023-04-12T07:15:47.382Z,705.00
2023-04-12T07:16:47.534Z,709.00
2023-04-12T07:17:47.538Z,721.00
2023-04-12T07:18:47.545Z,728.00
2023-04-12T07:19:47.610Z,734.00
2023-04-12T07:20:47.643Z,741.00
2023-04-12T07:21:47.701Z,744.00
2023-04-12T07:22:47.783Z,755.00
2023-04-12T07:23:47.850Z,760.00
2023-04-12T07:24:47.900Z,774.00
2023-04-12T07:25:47.939Z,791.00
2023-04-12T07:26:48.048Z,799.00
2023-04-12T07:27:49.355Z,803.00
2023-04-12T07:28:48.037Z,803.00
2023-04-12T07:29:48.271Z,808.00
2023-04-12T07:30:48.049Z,815.00
2023-04-12T07:31:48.022Z,822.00
2023-04-12T07:32:48.086Z,827.00
2023-04-12T07:33:48.109Z,863.00
2023-04-12T07:34:47.996Z,879.00
2023-04-12T07:35:48.064Z,887.00
2023-04-12T07:36:48.003Z,885.00
2023-04-12T07:37:47.978Z,894.00
2023-04-12T07:38:47.963Z,991.00
2023-04-12T07:39:48.086Z,993.00
2023-04-12T07:40:50.261Z,1058.00
2023-04-12T07:41:47.959Z,1081.00
2023-04-12T07:42:48.073Z,1093.00
2023-04-12T07:43:47.951Z,1103.00
2023-04-12T07:44:47.939Z,1176.00
2023-04-12T07:45:47.995Z,1185.00
2023-04-12T07:46:47.988Z,1233.00
2023-04-12T07:47:48.046Z,1225.00
2023-04-12T07:48:48.004Z,1242.00
2023-04-12T07:49:48.062Z,1280.00
2023-04-12T07:50:48.032Z,1308.00
2023-04-12T07:51:48.018Z,1337.00
2023-04-12T07:52:48.032Z,1348.00
2023-04-12T07:53:48.010Z,1370.00
2023-04-12T07:54:48.032Z,1390.00
2023-04-12T07:55:48.035Z,1399.00
2023-04-12T07:56:48.012Z,1410.00
2023-04-12T07:57:48.020Z,1439.00
2023-04-12T07:58:48.063Z,1455.00
2023-04-12T07:59:48.011Z,1462.00
2023-04-12T08:00:48.022Z,1487.00
2023-04-12T08:01:48.086Z,1541.00
2023-04-12T08:02:48.146Z,1544.00
2023-04-12T08:03:48.224Z,1548.00
2023-04-12T08:04:48.025Z,1545.00
2023-04-12T08:05:48.061Z,1555.00
2023-04-12T08:06:48.046Z,1609.00
2023-04-12T08:07:48.069Z,1624.00
2023-04-12T08:08:48.138Z,1626.00
2023-04-12T08:09:48.124Z,1631.00
2023-04-12T08:10:48.118Z,1639.00
2023-04-12T08:11:48.144Z,1632.00
2023-04-12T08:12:48.213Z,1642.00
2023-04-12T08:13:48.220Z,1652.00
2023-04-12T08:14:48.843Z,1676.00
2023-04-12T08:15:48.442Z,1729.00
2023-04-12T08:16:48.395Z,1740.00
2023-04-12T08:17:48.491Z,1736.00
2023-04-12T08:18:48.584Z,1740.00
2023-04-12T08:19:48.621Z,1733.00
2023-04-12T08:20:48.665Z,1707.00
2023-04-12T08:21:48.701Z,1728.00
2023-04-12T08:22:48.785Z,1747.00
2023-04-12T08:23:48.843Z,1766.00
2023-04-12T08:24:48.893Z,1782.00
2023-04-12T08:25:48.912Z,1790.00
2023-04-12T08:26:48.995Z,1809.00
2023-04-12T08:27:49.055Z,1872.00
2023-04-12T08:28:49.119Z,1868.00
2023-04-12T08:29:49.139Z,1874.00
2023-04-12T08:30:49.241Z,1886.00
2023-04-12T08:31:49.273Z,1966.00
2023-04-12T08:32:49.356Z,1975.00
2023-04-12T08:33:49.338Z,1976.00
2023-04-12T08:34:49.385Z,1952.00
2023-04-12T08:35:49.507Z,1968.00
2023-04-12T08:36:49.480Z,1969.00
2023-04-12T08:37:49.974Z,1961.00
2023-04-12T08:38:49.621Z,2057.00
2023-04-12T08:39:49.619Z,1974.00
2023-04-12T08:40:49.658Z,1994.00
2023-04-12T08:41:49.668Z,2032.00
2023-04-12T08:42:49.752Z,2037.00
2023-04-12T08:43:49.784Z,2033.00
2023-04-12T08:44:49.793Z,1944.00
2023-04-12T08:45:49.866Z,1919.00
2023-04-12T08:46:51.185Z,1760.00
2023-04-12T08:47:50.012Z,1658.00
2023-04-12T08:48:49.954Z,1691.00
2023-04-12T08:49:49.955Z,1694.00
2023-04-12T08:50:50.686Z,1690.00
2023-04-12T08:51:49.980Z,1745.00
2023-04-12T08:52:50.520Z,1569.00
2023-04-12T08:53:49.985Z,1562.00
2023-04-12T08:54:50.041Z,1489.00
2023-04-12T08:55:50.058Z,1469.00
2023-04-12T08:56:50.033Z,1491.00
2023-04-12T08:57:50.058Z,1482.00
2023-04-12T08:58:50.060Z,1479.00
2023-04-12T08:59:50.061Z,1463.00
2023-04-12T09:00:50.118Z,1457.00
2023-04-12T09:01:50.235Z,1450.00
2023-04-12T09:02:50.280Z,1365.00
2023-04-12T09:03:50.283Z,1355.00
2023-04-12T09:04:50.408Z,1310.00
2023-04-12T09:05:50.125Z,1314.00
2023-04-12T09:06:50.134Z,1315.00
2023-04-12T09:07:50.157Z,1252.00
2023-04-12T09:08:50.195Z,1271.00
2023-04-12T09:09:50.211Z,1228.00
2023-04-12T09:10:50.237Z,1222.00
2023-04-12T09:11:50.242Z,1204.00
2023-04-12T09:12:51.704Z,1121.00
2023-04-12T09:13:50.410Z,1164.00
2023-04-12T09:14:50.424Z,1124.00
2023-04-12T09:15:50.446Z,1125.00
2023-04-12T09:16:50.565Z,1114.00
2023-04-12T09:17:50.556Z,1131.00
2023-04-12T09:18:50.542Z,1131.00
2023-04-12T09:19:50.572Z,1082.00
2023-04-12T09:20:50.608Z,1098.00
2023-04-12T09:21:50.616Z,1136.00
2023-04-12T09:22:50.686Z,1051.00
2023-04-12T09:23:50.684Z,1059.00
2023-04-12T09:24:50.710Z,987.00
2023-04-12T09:25:50.720Z,1144.00
2023-04-12T09:26:50.737Z,1145.00
2023-04-12T09:27:50.788Z,1191.00
2023-04-12T09:28:50.738Z,1239.00
2023-04-12T09:29:50.730Z,1277.00
2023-04-12T09:30:50.785Z,1300.00
2023-04-12T09:31:51.624Z,1329.00
2023-04-12T09:32:50.931Z,1382.00
2023-04-12T09:33:50.957Z,1389.00
2023-04-12T09:34:50.994Z,1420.00
2023-04-12T09:35:51.167Z,1439.00
2023-04-12T09:36:51.109Z,1454.00
2023-04-12T09:37:51.145Z,1466.00
2023-04-12T09:38:51.179Z,1474.00
2023-04-12T09:39:51.231Z,1476.00
2023-04-12T09:40:51.300Z,1475.00
2023-04-12T09:41:51.289Z,1475.00
2023-04-12T09:42:51.550Z,1481.00
2023-04-12T09:43:51.389Z,1490.00
2023-04-12T09:44:51.434Z,1492.00
2023-04-12T09:45:51.531Z,1491.00
2023-04-12T09:46:51.571Z,1506.00
2023-04-12T09:47:52.072Z,1565.00
2023-04-12T09:48:51.568Z,1595.00
2023-04-12T09:49:51.601Z,1647.00
2023-04-12T09:50:51.645Z,1690.00
2023-04-12T09:51:51.621Z,1712.00
2023-04-12T09:52:51.701Z,1717.00
2023-04-12T09:53:51.705Z,1720.00
2023-04-12T09:54:51.690Z,1737.00
2023-04-12T09:55:51.697Z,1767.00
2023-04-12T09:56:51.740Z,1784.00
2023-04-12T09:57:51.799Z,1815.00
2023-04-12T09:58:51.791Z,1835.00
2023-04-12T09:59:51.797Z,1834.00
2023-04-12T10:00:51.852Z,1848.00
2023-04-12T10:01:51.917Z,1866.00
2023-04-12T10:02:52.429Z,1877.00
2023-04-12T10:03:52.152Z,1887.00
2023-04-12T10:04:52.066Z,1905.00
2023-04-12T10:05:51.959Z,1924.00
2023-04-12T10:06:52.030Z,1922.00
2023-04-12T10:07:52.000Z,1912.00
2023-04-12T10:08:52.020Z,1931.00
2023-04-12T10:09:52.044Z,1956.00
2023-04-12T10:10:52.098Z,1967.00
2023-04-12T10:11:52.091Z,1980.00
2023-04-12T10:12:52.114Z,1983.00
2023-04-12T10:13:52.152Z,1993.00
2023-04-12T10:14:52.162Z,2013.00
2023-04-12T10:15:52.195Z,2060.00
2023-04-12T10:16:52.213Z,2078.00
2023-04-12T10:17:52.229Z,2084.00
2023-04-12T10:18:52.197Z,2080.00
2023-04-12T10:19:52.227Z,2079.00
2023-04-12T10:20:52.206Z,2095.00
2023-04-12T10:21:52.224Z,2107.00
2023-04-12T10:22:52.252Z,2104.00
2023-04-12T10:23:52.237Z,2107.00
2023-04-12T10:24:52.237Z,2122.00
2023-04-12T10:25:55.217Z,2128.00
2023-04-12T10:26:52.264Z,2159.00
2023-04-12T10:27:52.265Z,2161.00
2023-04-12T10:28:52.231Z,2161.00
2023-04-12T10:29:52.230Z,2162.00
2023-04-12T10:30:52.299Z,2185.00
2023-04-12T10:31:52.298Z,2197.00
2023-04-12T10:32:52.246Z,2208.00
2023-04-12T10:33:52.240Z,2218.00
2023-04-12T10:34:52.182Z,2242.00
2023-04-12T10:35:52.204Z,2280.00
2023-04-12T10:36:52.182Z,2304.00
2023-04-12T10:37:52.218Z,2317.00
2023-04-12T10:38:52.159Z,2295.00
2023-04-12T10:39:52.197Z,2206.00
2023-04-12T10:40:52.127Z,1920.00
2023-04-12T10:41:52.186Z,1973.00
2023-04-12T10:42:52.141Z,1888.00
2023-04-12T10:43:52.187Z,1961.00
2023-04-12T10:44:52.141Z,1969.00
2023-04-12T10:45:52.120Z,1962.00
2023-04-12T10:46:52.155Z,1976.00
2023-04-12T10:47:52.186Z,1981.00
2023-04-12T10:48:52.122Z,1976.00
2023-04-12T10:49:52.090Z,1905.00
2023-04-12T10:50:52.079Z,1980.00
2023-04-12T10:51:52.069Z,1951.00
2023-04-12T10:52:52.066Z,1954.00
2023-04-12T10:53:52.118Z,1961.00
2023-04-12T10:54:52.115Z,1922.00
2023-04-12T10:55:52.057Z,1981.00
2023-04-12T10:56:52.083Z,1986.00
2023-04-12T10:57:52.013Z,1994.00
2023-04-12T10:58:52.092Z,1971.00
2023-04-12T10:59:52.004Z,1972.00
2023-04-12T11:00:52.180Z,1971.00
2023-04-12T11:01:52.094Z,1962.00
2023-04-12T11:02:52.187Z,1959.00
2023-04-12T11:03:52.192Z,1966.00
2023-04-12T11:04:52.091Z,1938.00
2023-04-12T11:05:51.955Z,1956.00
2023-04-12T11:06:52.987Z,1936.00
2023-04-12T11:07:51.936Z,1919.00
2023-04-12T11:08:51.957Z,1890.00
2023-04-12T11:09:51.961Z,1871.00
2023-04-12T11:10:51.971Z,1854.00
2023-04-12T11:11:51.926Z,1839.00
2023-04-12T11:12:51.915Z,1808.00
2023-04-12T11:13:51.927Z,1779.00
2023-04-12T11:14:51.899Z,1766.00
2023-04-12T11:15:51.924Z,1760.00
2023-04-12T11:16:52.004Z,1774.00
2023-04-12T11:17:51.988Z,1772.00
2023-04-12T11:18:51.876Z,1777.00
2023-04-12T11:19:51.849Z,1777.00
2023-04-12T11:20:51.883Z,1712.00
2023-04-12T11:21:51.914Z,1748.00
2023-04-12T11:22:51.881Z,1686.00
2023-04-12T11:23:51.833Z,1683.00
2023-04-12T11:24:51.862Z,1699.00
2023-04-12T11:25:51.838Z,1709.00
2023-04-12T11:26:51.823Z,1709.00
2023-04-12T11:27:51.908Z,1705.00
2023-04-12T11:28:52.069Z,1701.00
2023-04-12T11:29:51.779Z,1617.00
2023-04-12T11:30:51.822Z,1607.00
2023-04-12T11:31:51.849Z,1569.00
2023-04-12T11:32:51.758Z,1540.00
2023-04-12T11:33:51.782Z,1409.00
2023-04-12T11:34:51.749Z,1403.00
2023-04-12T11:35:51.726Z,1318.00
2023-04-12T11:36:51.743Z,1293.00
2023-04-12T11:37:51.769Z,1289.00
2023-04-12T11:38:51.734Z,1242.00
2023-04-12T11:39:51.723Z,1204.00
2023-04-12T11:40:51.699Z,1165.00
2023-04-12T11:41:51.723Z,1168.00
2023-04-12T11:42:51.689Z,1100.00
2023-04-12T11:43:51.713Z,1106.00
2023-04-12T11:44:58.407Z,1066.00
2023-04-12T11:45:52.696Z,1042.00
2023-04-12T11:46:51.663Z,1021.00
2023-04-12T11:47:51.708Z,1003.00
2023-04-12T11:48:51.665Z,987.00
2023-04-12T11:49:51.654Z,992.00
2023-04-12T11:50:59.965Z,996.00
2023-04-12T11:51:52.632Z,937.00
2023-04-12T11:52:51.628Z,912.00
2023-04-12T11:53:51.613Z,920.00
2023-04-12T11:54:51.629Z,938.00
2023-04-12T11:55:51.615Z,871.00
2023-04-12T11:56:51.579Z,877.00
2023-04-12T11:57:51.574Z,875.00
2023-04-12T11:58:51.624Z,862.00
2023-04-12T11:59:51.669Z,848.00
2023-04-12T12:00:51.706Z,825.00
2023-04-12T12:01:51.781Z,810.00
2023-04-12T12:03:06.694Z,799.00
2023-04-12T12:03:52.957Z,787.00
2023-04-12T12:04:52.302Z,757.00
2023-04-12T12:05:52.271Z,758.00
2023-04-12T12:06:52.264Z,742.00
2023-04-12T12:07:51.783Z,726.00
2023-04-12T12:08:51.772Z,720.00
2023-04-12T12:09:51.782Z,714.00
2023-04-12T12:11:51.764Z,693.00
2023-04-12T12:12:51.734Z,687.00
2023-04-12T12:13:51.744Z,678.00
2023-04-12T12:14:51.715Z,673.00
2023-04-12T12:15:51.750Z,668.00
2023-04-12T12:16:51.718Z,666.00
2023-04-12T12:17:51.743Z,662.00
2023-04-12T12:18:52.952Z,665.00
2023-04-12T12:19:51.766Z,665.00
2023-04-12T12:20:51.807Z,665.00
2023-04-12T12:21:51.838Z,665.00